シンガポール/チャンギ の空港の天気 - METARとTAF

シンガポール・チャンギ国際空港 ( WSSS / SIN ) - シンガポール Changi
飛行場実況気象(Metar)
観測時間10/19 07:30 SGT (10/18 23:30 UTC)
風向・風速不定 1m/s
視程6000m
天気現象
少しの雲 雲底高度 490m
全天の8割程度の雲 雲底高度 9140m
気温28℃
湿度89%
気圧1011hPa
METARWSSS 182330Z VRB02KT 6000 FEW016 BKN300 28/26 Q1011 NOSIG
過去の天気等 Google飛行場航空写真 Wunderground天気予報

過去48時間のMETAR

飛行場予報(TAF)
発表時間: 10/19 07:00 SGT (10/18 23:00 UTC)
予報対象時間: 19日8時 SGT ~ 20日14時 SGT
風向・風速西南西 4m/s
視程10km以上
少しの積乱雲 雲底高度 550m
全天の4割程度の雲 雲底高度 610m
19日15時 SGT ~ 19日18時 SGT に 確率 30% で一時的に
視程4,500m
天気現象しゅう雨
少しの積乱雲 雲底高度 370m
全天の8割程度の雲 雲底高度 460m
TAF WSSS 182300Z 1900/2006 25007KT 9999 FEW018CB SCT020
PROB30 TEMPO 1907/1910 4500 SHRA FEW012CB BKN015